createdAt,value
2018-08-30T00:01:25.582Z,83
2018-08-30T00:06:26.181Z,83
2018-08-30T00:11:25.872Z,83
2018-08-30T00:16:25.787Z,83
2018-08-30T00:21:25.412Z,83
2018-08-30T00:26:25.827Z,84
2018-08-30T00:31:26.160Z,84
2018-08-30T00:36:25.491Z,84
2018-08-30T00:41:26.094Z,84
2018-08-30T00:46:25.649Z,85
2018-08-30T00:51:25.962Z,85
2018-08-30T00:56:25.251Z,85
2018-08-30T01:01:25.338Z,85
2018-08-30T01:06:25.923Z,86
2018-08-30T01:11:25.641Z,86
2018-08-30T01:16:26.084Z,86
2018-08-30T01:21:25.462Z,86
2018-08-30T01:26:25.847Z,86
2018-08-30T01:31:26.136Z,86
2018-08-30T01:36:25.659Z,87
2018-08-30T01:41:26.067Z,87
2018-08-30T01:46:25.375Z,87
2018-08-30T01:51:25.740Z,87
2018-08-30T01:56:26.137Z,87
2018-08-30T02:01:25.615Z,87
2018-08-30T02:06:26.369Z,87
2018-08-30T02:11:25.666Z,87
2018-08-30T02:16:26.057Z,88
2018-08-30T02:21:25.475Z,88
2018-08-30T02:26:25.812Z,89
2018-08-30T02:31:26.173Z,89
2018-08-30T02:36:25.706Z,89
2018-08-30T02:41:26.071Z,89
2018-08-30T02:46:25.409Z,89
2018-08-30T02:51:25.732Z,89
2018-08-30T02:56:26.043Z,89
2018-08-30T03:01:25.520Z,89
2018-08-30T03:06:25.930Z,90
2018-08-30T03:11:25.499Z,90
2018-08-30T03:16:25.900Z,90
2018-08-30T03:21:26.272Z,90
2018-08-30T03:26:25.578Z,90
2018-08-30T03:31:25.957Z,90
2018-08-30T03:36:26.307Z,91
2018-08-30T03:41:25.591Z,91
2018-08-30T03:46:25.944Z,91
2018-08-30T03:51:26.328Z,91
2018-08-30T03:56:25.643Z,92
2018-08-30T04:01:26.057Z,92
2018-08-30T04:06:25.618Z,93
2018-08-30T04:11:25.940Z,93
2018-08-30T04:16:26.323Z,94
2018-08-30T04:21:25.638Z,94
2018-08-30T04:26:26.043Z,94
2018-08-30T04:31:25.541Z,94
2018-08-30T04:36:26.159Z,94
2018-08-30T04:41:25.595Z,94
2018-08-30T04:46:26.064Z,94
2018-08-30T04:51:25.651Z,94
2018-08-30T04:56:25.961Z,94
2018-08-30T05:01:26.399Z,94
2018-08-30T05:06:26.283Z,95
2018-08-30T05:11:25.735Z,95
2018-08-30T05:16:26.263Z,95
2018-08-30T05:21:25.667Z,95
2018-08-30T05:26:25.975Z,95
2018-08-30T05:31:26.349Z,95
2018-08-30T05:36:25.751Z,95
2018-08-30T05:41:26.148Z,95
2018-08-30T05:46:26.426Z,95
2018-08-30T05:51:25.734Z,95
2018-08-30T05:56:26.048Z,96
2018-08-30T06:01:25.937Z,96
2018-08-30T06:06:25.853Z,96
2018-08-30T06:11:26.142Z,96
2018-08-30T06:16:26.002Z,96
2018-08-30T06:21:26.593Z,96
2018-08-30T06:26:25.995Z,96
2018-08-30T06:31:26.334Z,96
2018-08-30T06:36:25.750Z,96
2018-08-30T06:41:26.065Z,96
2018-08-30T06:46:26.418Z,96
2018-08-30T06:51:25.754Z,96
2018-08-30T06:56:26.133Z,96
2018-08-30T07:01:26.541Z,96
2018-08-30T07:06:25.910Z,96
2018-08-30T07:11:26.478Z,96
2018-08-30T07:16:25.853Z,96
2018-08-30T07:21:25.922Z,96
2018-08-30T07:26:26.293Z,97
2018-08-30T07:31:25.825Z,97
2018-08-30T07:36:26.211Z,97
2018-08-30T07:41:26.560Z,97
2018-08-30T07:46:25.806Z,97
2018-08-30T07:51:26.277Z,97
2018-08-30T07:56:26.623Z,97
2018-08-30T08:01:26.029Z,97
2018-08-30T08:06:25.955Z,97
2018-08-30T08:11:25.859Z,97
2018-08-30T08:16:26.157Z,97
2018-08-30T08:21:26.672Z,97
2018-08-30T08:26:25.670Z,97
2018-08-30T08:31:25.953Z,97
2018-08-30T08:36:26.510Z,97
2018-08-30T08:41:25.857Z,97
2018-08-30T08:46:26.307Z,97
2018-08-30T08:51:26.683Z,97
2018-08-30T08:56:26.010Z,97
2018-08-30T09:01:26.553Z,97
2018-08-30T09:06:25.939Z,97
2018-08-30T09:11:26.735Z,97
2018-08-30T09:16:26.034Z,98
2018-08-30T09:21:26.408Z,98
2018-08-30T09:26:26.751Z,98
2018-08-30T09:31:26.374Z,98
2018-08-30T09:36:26.166Z,98
2018-08-30T09:41:26.523Z,98
2018-08-30T09:46:25.840Z,98
2018-08-30T09:51:26.245Z,98
2018-08-30T09:56:26.093Z,98
2018-08-30T10:01:26.466Z,98
2018-08-30T10:06:26.791Z,98
2018-08-30T10:11:26.147Z,98
2018-08-30T10:16:26.516Z,98
2018-08-30T10:21:25.978Z,98
2018-08-30T10:26:26.376Z,98
2018-08-30T10:31:26.826Z,98
2018-08-30T10:36:26.297Z,98
2018-08-30T10:41:26.675Z,98
2018-08-30T10:46:26.020Z,98
2018-08-30T10:51:26.501Z,98
2018-08-30T10:56:26.804Z,98
2018-08-30T11:01:26.377Z,98
2018-08-30T11:06:25.985Z,98
2018-08-30T11:11:26.944Z,98
2018-08-30T11:16:26.215Z,98
2018-08-30T11:21:26.663Z,98
2018-08-30T11:26:25.965Z,98
2018-08-30T11:31:26.297Z,98
2018-08-30T11:36:26.791Z,98
2018-08-30T11:41:26.192Z,98
2018-08-30T11:46:26.710Z,98
2018-08-30T11:51:26.009Z,98
2018-08-30T11:56:26.284Z,97
2018-08-30T12:01:26.662Z,97
2018-08-30T12:06:26.887Z,97
2018-08-30T12:11:26.937Z,97
2018-08-30T12:16:26.484Z,97
2018-08-30T12:21:26.048Z,97
2018-08-30T12:26:26.441Z,97
2018-08-30T12:31:26.863Z,97
2018-08-30T12:36:26.478Z,97
2018-08-30T12:41:26.984Z,97
2018-08-30T12:46:26.654Z,96
2018-08-30T12:51:26.211Z,96
2018-08-30T12:56:26.907Z,96
2018-08-30T13:01:26.652Z,96
2018-08-30T13:06:26.437Z,96
2018-08-30T13:11:27.190Z,96
2018-08-30T13:16:26.525Z,96
2018-08-30T13:21:26.500Z,96
2018-08-30T13:26:27.217Z,96
2018-08-30T13:31:27.306Z,96
2018-08-30T13:36:26.537Z,96
2018-08-30T13:41:26.743Z,96
2018-08-30T13:46:26.948Z,96
2018-08-30T13:51:26.964Z,96
2018-08-30T13:56:27.018Z,96
2018-08-30T14:01:26.763Z,96
2018-08-30T14:06:26.634Z,96
2018-08-30T14:11:26.927Z,96
2018-08-30T14:16:26.993Z,96
2018-08-30T14:21:26.840Z,96
2018-08-30T14:26:26.258Z,96
2018-08-30T14:31:26.601Z,96
2018-08-30T14:36:27.193Z,95
2018-08-30T14:41:26.674Z,95
2018-08-30T14:46:27.027Z,95
2018-08-30T14:51:26.390Z,95
2018-08-30T14:56:26.210Z,95
2018-08-30T15:01:26.674Z,95
2018-08-30T15:06:27.066Z,95
2018-08-30T15:11:27.310Z,95
2018-08-30T15:16:27.085Z,95
2018-08-30T15:21:26.459Z,95
2018-08-30T15:26:26.665Z,95
2018-08-30T15:31:27.145Z,95
2018-08-30T15:36:26.590Z,96
2018-08-30T15:41:27.196Z,96
2018-08-30T15:46:26.614Z,96
2018-08-30T15:51:26.958Z,96
2018-08-30T15:56:26.274Z,96
2018-08-30T16:01:26.658Z,96
2018-08-30T16:06:27.100Z,96
2018-08-30T16:11:26.621Z,96
2018-08-30T16:16:26.888Z,96
2018-08-30T16:21:27.310Z,96
2018-08-30T16:26:26.624Z,96
2018-08-30T16:31:27.104Z,96
2018-08-30T16:36:26.467Z,96
2018-08-30T16:41:26.900Z,96
2018-08-30T16:46:26.290Z,96
2018-08-30T16:51:27.049Z,96
2018-08-30T16:56:26.706Z,96
2018-08-30T17:01:27.207Z,96
2018-08-30T17:06:26.773Z,96
2018-08-30T17:11:27.469Z,96
2018-08-30T17:16:26.910Z,96
2018-08-30T17:21:27.280Z,96
2018-08-30T17:26:26.566Z,96
2018-08-30T17:31:26.839Z,96
2018-08-30T17:36:27.232Z,95
2018-08-30T17:41:26.598Z,95
2018-08-30T17:46:26.939Z,95
2018-08-30T17:51:26.341Z,95
2018-08-30T17:56:26.694Z,94
2018-08-30T18:01:27.174Z,94
2018-08-30T18:06:26.661Z,93
2018-08-30T18:11:27.016Z,93
2018-08-30T18:16:27.121Z,93
2018-08-30T18:21:26.447Z,93
2018-08-30T18:26:26.756Z,92
2018-08-30T18:31:27.253Z,92
2018-08-30T18:36:26.583Z,91
2018-08-30T18:41:27.028Z,91
2018-08-30T18:46:26.496Z,91
2018-08-30T18:51:26.868Z,91
2018-08-30T18:56:27.163Z,90
2018-08-30T19:01:26.576Z,90
2018-08-30T19:06:27.401Z,90
2018-08-30T19:11:26.907Z,90
2018-08-30T19:16:26.892Z,90
2018-08-30T19:21:27.188Z,90
2018-08-30T19:26:26.429Z,90
2018-08-30T19:31:26.734Z,90
2018-08-30T19:36:27.059Z,90
2018-08-30T19:41:27.472Z,90
2018-08-30T19:46:26.851Z,90
2018-08-30T19:51:27.420Z,90
2018-08-30T19:56:26.861Z,89
2018-08-30T20:01:27.213Z,89
2018-08-30T20:06:26.689Z,89
2018-08-30T20:11:27.038Z,89
2018-08-30T20:16:27.264Z,89
2018-08-30T20:21:26.699Z,89
2018-08-30T20:26:27.039Z,89
2018-08-30T20:31:27.429Z,89
2018-08-30T20:36:26.764Z,89
2018-08-30T20:41:27.062Z,89
2018-08-30T20:46:27.393Z,89
2018-08-30T20:51:26.991Z,89
2018-08-30T20:56:26.655Z,90
2018-08-30T21:01:27.107Z,90
2018-08-30T21:06:27.592Z,90
2018-08-30T21:11:27.083Z,90
2018-08-30T21:16:27.356Z,90
2018-08-30T21:21:26.817Z,90
2018-08-30T21:26:27.145Z,90
2018-08-30T21:31:27.550Z,90
2018-08-30T21:36:26.837Z,90
2018-08-30T21:41:27.128Z,90
2018-08-30T21:46:27.493Z,90
2018-08-30T21:51:26.908Z,90
2018-08-30T21:56:27.359Z,90
2018-08-30T22:01:26.772Z,90
2018-08-30T22:06:27.425Z,90
2018-08-30T22:11:26.771Z,90
2018-08-30T22:16:26.987Z,90
2018-08-30T22:21:27.563Z,90
2018-08-30T22:26:26.924Z,90
2018-08-30T22:31:27.306Z,90
2018-08-30T22:36:27.665Z,90
2018-08-30T22:41:26.965Z,90
2018-08-30T22:46:27.242Z,91
2018-08-30T22:51:27.610Z,91
2018-08-30T22:56:26.961Z,91
2018-08-30T23:01:27.164Z,91
2018-08-30T23:06:27.557Z,91
2018-08-30T23:11:26.865Z,91
2018-08-30T23:16:27.119Z,91
2018-08-30T23:21:27.571Z,91
2018-08-30T23:26:26.988Z,91
2018-08-30T23:31:27.334Z,91
2018-08-30T23:36:27.704Z,91
2018-08-30T23:41:27.047Z,91
2018-08-30T23:46:27.356Z,92
2018-08-30T23:51:27.688Z,92
2018-08-30T23:56:26.991Z,92
